DLH6LM LOWW-EPWA
Flight info
| Callsign | DLH6LM |
|---|---|
| Flight time | 1h 4m |
| Altitude | 23000 |
| Route | KOXER1C/29 KOXER Z649 XENAK M985 NIT/N0456F350 DCT MEBAN DCT ORTEB/N0460F340 DCT KONZI DCT LOGDA |
| Aircraft | A320/M-SDE3FGHIRWY/LB1 |
Departure
| Time | 2026-04-23 18:33 |
|---|---|
| Airport | Vienna International Airport (LOWW) |
Arrival
| Time | 2026-04-23 19:37 |
|---|---|
| Airport | Warsaw Chopin Airport (EPWA) |
| Time | Latitude | Longitude | Altitude | Speed | Heading |
|---|---|---|---|---|---|
| 2026-04-23 18:20 | 48.12097 | 16.55002 | 604 ft | 0 kts | 23° |
| 2026-04-23 18:23 | 48.12096 | 16.55002 | 604 ft | 1 kts | 23° |
| 2026-04-23 18:24 | 48.12063 | 16.54973 | 621 ft | 4 kts | 51° |
| 2026-04-23 18:24 | 48.12053 | 16.54940 | 613 ft | 4 kts | 98° |
| 2026-04-23 18:24 | 48.12056 | 16.54922 | 623 ft | 1 kts | 116° |
| 2026-04-23 18:25 | 48.12056 | 16.54921 | 623 ft | 1 kts | 116° |
| 2026-04-23 18:28 | 48.12051 | 16.54939 | 613 ft | 5 kts | 116° |
| 2026-04-23 18:28 | 48.12028 | 16.55007 | 615 ft | 10 kts | 116° |
| 2026-04-23 18:28 | 48.11989 | 16.55130 | 617 ft | 14 kts | 115° |
| 2026-04-23 18:28 | 48.11916 | 16.55193 | 621 ft | 13 kts | 161° |
| 2026-04-23 18:29 | 48.11851 | 16.55311 | 616 ft | 17 kts | 117° |
| 2026-04-23 18:29 | 48.11791 | 16.55500 | 613 ft | 22 kts | 115° |
| 2026-04-23 18:29 | 48.11722 | 16.55708 | 618 ft | 23 kts | 117° |
| 2026-04-23 18:29 | 48.11647 | 16.55937 | 619 ft | 25 kts | 116° |
| 2026-04-23 18:30 | 48.11562 | 16.56196 | 619 ft | 29 kts | 115° |
| 2026-04-23 18:30 | 48.11490 | 16.56428 | 617 ft | 27 kts | 114° |
| 2026-04-23 18:30 | 48.11410 | 16.56666 | 625 ft | 20 kts | 122° |
| 2026-04-23 18:30 | 48.11343 | 16.56866 | 620 ft | 22 kts | 115° |
| 2026-04-23 18:31 | 48.11278 | 16.57066 | 626 ft | 23 kts | 116° |
| 2026-04-23 18:31 | 48.11204 | 16.57293 | 623 ft | 26 kts | 116° |
| 2026-04-23 18:31 | 48.11146 | 16.57474 | 623 ft | 16 kts | 115° |
| 2026-04-23 18:31 | 48.11056 | 16.57510 | 619 ft | 15 kts | 202° |
| 2026-04-23 18:32 | 48.10970 | 16.57446 | 634 ft | 13 kts | 222° |
| 2026-04-23 18:32 | 48.10988 | 16.57306 | 625 ft | 20 kts | 295° |
| 2026-04-23 18:32 | 48.11144 | 16.56837 | 634 ft | 85 kts | 296° |
| 2026-04-23 18:32 | 48.11489 | 16.55769 | 625 ft | 140 kts | 296° |
| 2026-04-23 18:33 | 48.11958 | 16.54304 | 924 ft | 160 kts | 300° |
| 2026-04-23 18:33 | 48.12332 | 16.52733 | 1604 ft | 166 kts | 277° |
| 2026-04-23 18:33 | 48.11856 | 16.51014 | 2154 ft | 202 kts | 237° |
| 2026-04-23 18:33 | 48.10693 | 16.49543 | 2436 ft | 235 kts | 222° |
| 2026-04-23 18:34 | 48.09242 | 16.48140 | 2840 ft | 261 kts | 218° |
| 2026-04-23 18:34 | 48.07452 | 16.47141 | 3358 ft | 292 kts | 187° |
| 2026-04-23 18:34 | 48.05397 | 16.47448 | 4222 ft | 300 kts | 173° |
| 2026-04-23 18:34 | 48.03324 | 16.47942 | 5163 ft | 303 kts | 174° |
| 2026-04-23 18:35 | 48.01230 | 16.48404 | 6065 ft | 306 kts | 174° |
| 2026-04-23 18:35 | 47.99138 | 16.49089 | 6909 ft | 311 kts | 158° |
| 2026-04-23 18:35 | 47.97292 | 16.50758 | 7738 ft | 311 kts | 134° |
| 2026-04-23 18:35 | 47.95985 | 16.53275 | 8607 ft | 305 kts | 111° |
| 2026-04-23 18:36 | 47.95370 | 16.56231 | 9502 ft | 296 kts | 90° |
| 2026-04-23 18:36 | 47.95464 | 16.59226 | 10330 ft | 286 kts | 71° |
| 2026-04-23 18:36 | 47.96083 | 16.62082 | 10821 ft | 298 kts | 65° |
| 2026-04-23 18:36 | 47.96800 | 16.65110 | 11044 ft | 321 kts | 66° |
| 2026-04-23 18:37 | 47.97568 | 16.68369 | 11202 ft | 344 kts | 66° |
| 2026-04-23 18:37 | 47.98376 | 16.71834 | 11531 ft | 359 kts | 67° |
| 2026-04-23 18:37 | 47.99196 | 16.75389 | 12165 ft | 364 kts | 66° |
| 2026-04-23 18:37 | 48.00301 | 16.78775 | 12836 ft | 363 kts | 54° |
| 2026-04-23 18:38 | 48.01749 | 16.81864 | 13523 ft | 365 kts | 52° |
| 2026-04-23 18:38 | 48.03236 | 16.84955 | 14162 ft | 368 kts | 52° |
| 2026-04-23 18:38 | 48.04739 | 16.88071 | 14716 ft | 371 kts | 52° |
| 2026-04-23 18:38 | 48.06256 | 16.91225 | 15264 ft | 375 kts | 52° |
| 2026-04-23 18:39 | 48.07784 | 16.94411 | 15801 ft | 379 kts | 52° |
| 2026-04-23 18:39 | 48.09324 | 16.97632 | 16336 ft | 382 kts | 52° |
| 2026-04-23 18:39 | 48.10810 | 17.00946 | 16861 ft | 387 kts | 58° |
| 2026-04-23 18:39 | 48.11894 | 17.04668 | 17363 ft | 394 kts | 70° |
| 2026-04-23 18:40 | 48.12467 | 17.08715 | 17893 ft | 402 kts | 81° |
| 2026-04-23 18:40 | 48.12506 | 17.12928 | 18391 ft | 408 kts | 90° |
| 2026-04-23 18:40 | 48.12412 | 17.15744 | 18691 ft | 410 kts | 90° |
| 2026-04-23 18:40 | 48.12270 | 17.20014 | 19184 ft | 411 kts | 89° |
| 2026-04-23 18:41 | 48.12128 | 17.24291 | 19685 ft | 412 kts | 89° |
| 2026-04-23 18:41 | 48.12168 | 17.28560 | 20172 ft | 409 kts | 81° |
| 2026-04-23 18:41 | 48.12936 | 17.34054 | 20788 ft | 407 kts | 68° |
| 2026-04-23 18:41 | 48.13906 | 17.38030 | 21253 ft | 407 kts | 66° |
| 2026-04-23 18:42 | 48.14565 | 17.40717 | 21586 ft | 408 kts | 67° |
| 2026-04-23 18:42 | 48.15534 | 17.44713 | 22058 ft | 408 kts | 67° |
| 2026-04-23 18:42 | 48.16497 | 17.48718 | 22524 ft | 409 kts | 67° |
| 2026-04-23 18:42 | 48.17459 | 17.52736 | 22938 ft | 410 kts | 67° |
| 2026-04-23 18:43 | 48.18415 | 17.56767 | 23047 ft | 414 kts | 67° |
| 2026-04-23 18:43 | 48.19362 | 17.60902 | 23065 ft | 424 kts | 68° |
| 2026-04-23 18:43 | 48.20307 | 17.65132 | 23087 ft | 432 kts | 68° |
| 2026-04-23 18:43 | 48.21252 | 17.69434 | 23224 ft | 438 kts | 69° |
| 2026-04-23 18:44 | 48.22204 | 17.73800 | 23362 ft | 443 kts | 69° |
| 2026-04-23 18:44 | 48.23167 | 17.78210 | 23518 ft | 446 kts | 69° |
| 2026-04-23 18:44 | 48.24134 | 17.82635 | 23819 ft | 446 kts | 69° |
| 2026-04-23 18:44 | 48.25104 | 17.87057 | 24134 ft | 446 kts | 68° |
| 2026-04-23 18:45 | 48.26079 | 17.91477 | 24455 ft | 446 kts | 68° |
| 2026-04-23 18:45 | 48.27051 | 17.95879 | 24798 ft | 444 kts | 68° |
| 2026-04-23 18:45 | 48.28067 | 18.00242 | 25153 ft | 440 kts | 64° |
| 2026-04-23 18:45 | 48.29475 | 18.04288 | 25506 ft | 435 kts | 54° |
| 2026-04-23 18:46 | 48.31305 | 18.07869 | 25884 ft | 431 kts | 45° |
| 2026-04-23 18:46 | 48.33476 | 18.10944 | 26264 ft | 428 kts | 40° |
| 2026-04-23 18:46 | 48.35670 | 18.13856 | 26655 ft | 426 kts | 40° |
| 2026-04-23 18:46 | 48.37886 | 18.16797 | 27068 ft | 424 kts | 40° |
| 2026-04-23 18:47 | 48.40091 | 18.19725 | 27467 ft | 422 kts | 40° |
| 2026-04-23 18:47 | 48.42287 | 18.22650 | 27872 ft | 420 kts | 40° |
| 2026-04-23 18:47 | 48.44467 | 18.25566 | 28282 ft | 418 kts | 40° |
| 2026-04-23 18:47 | 48.46638 | 18.28473 | 28705 ft | 417 kts | 40° |
| 2026-04-23 18:48 | 48.48796 | 18.31369 | 29102 ft | 415 kts | 40° |
| 2026-04-23 18:48 | 48.50946 | 18.34264 | 29520 ft | 413 kts | 40° |
| 2026-04-23 18:48 | 48.53087 | 18.37147 | 29941 ft | 412 kts | 40° |
| 2026-04-23 18:48 | 48.55220 | 18.40016 | 30330 ft | 410 kts | 40° |
| 2026-04-23 18:49 | 48.57343 | 18.42872 | 30682 ft | 408 kts | 40° |
| 2026-04-23 18:49 | 48.59459 | 18.45723 | 31038 ft | 406 kts | 40° |
| 2026-04-23 18:49 | 48.61561 | 18.48563 | 31367 ft | 405 kts | 40° |
| 2026-04-23 18:49 | 48.63656 | 18.51397 | 31707 ft | 404 kts | 40° |
| 2026-04-23 18:50 | 48.65042 | 18.53272 | 31939 ft | 403 kts | 40° |
| 2026-04-23 18:50 | 48.67827 | 18.57044 | 32393 ft | 401 kts | 40° |
| 2026-04-23 18:50 | 48.69901 | 18.59852 | 32761 ft | 399 kts | 39° |
| 2026-04-23 18:50 | 48.71964 | 18.62647 | 33116 ft | 397 kts | 39° |
| 2026-04-23 18:51 | 48.74019 | 18.65436 | 33453 ft | 396 kts | 39° |
| 2026-04-23 18:51 | 48.76065 | 18.68222 | 33796 ft | 395 kts | 39° |
| 2026-04-23 18:51 | 48.78101 | 18.71001 | 34125 ft | 393 kts | 39° |
| 2026-04-23 18:51 | 48.80130 | 18.73770 | 34398 ft | 392 kts | 39° |
| 2026-04-23 18:52 | 48.82156 | 18.76539 | 34637 ft | 392 kts | 39° |
| 2026-04-23 18:52 | 48.84181 | 18.79311 | 34879 ft | 392 kts | 39° |
| 2026-04-23 18:52 | 48.86211 | 18.82086 | 35039 ft | 393 kts | 39° |
| 2026-04-23 18:53 | 48.90271 | 18.87641 | 35070 ft | 393 kts | 39° |
| 2026-04-23 18:53 | 48.94325 | 18.93206 | 35071 ft | 393 kts | 39° |
| 2026-04-23 18:54 | 48.98373 | 18.98785 | 35063 ft | 393 kts | 39° |
| 2026-04-23 18:54 | 49.02416 | 19.04378 | 35065 ft | 393 kts | 39° |
| 2026-04-23 18:55 | 49.06439 | 19.09943 | 35056 ft | 393 kts | 39° |
| 2026-04-23 18:55 | 49.10497 | 19.15568 | 35056 ft | 394 kts | 39° |
| 2026-04-23 18:56 | 49.13899 | 19.20293 | 35051 ft | 394 kts | 39° |
| 2026-04-23 18:56 | 49.18614 | 19.26865 | 35059 ft | 395 kts | 39° |
| 2026-04-23 18:57 | 49.22673 | 19.32539 | 35060 ft | 395 kts | 39° |
| 2026-04-23 18:57 | 49.26734 | 19.38225 | 35069 ft | 396 kts | 38° |
| 2026-04-23 18:58 | 49.30798 | 19.43919 | 35067 ft | 396 kts | 39° |
| 2026-04-23 18:58 | 49.34872 | 19.49630 | 35070 ft | 396 kts | 38° |
| 2026-04-23 18:58 | 49.37123 | 19.51997 | 35097 ft | 391 kts | 24° |
| 2026-04-23 18:59 | 49.39644 | 19.53546 | 35066 ft | 390 kts | 20° |
| 2026-04-23 19:00 | 49.50169 | 19.59474 | 35065 ft | 391 kts | 19° |
| 2026-04-23 19:00 | 49.55207 | 19.62310 | 35069 ft | 391 kts | 19° |
| 2026-04-23 19:01 | 49.60450 | 19.65293 | 35073 ft | 391 kts | 20° |
| 2026-04-23 19:01 | 49.65556 | 19.68200 | 35071 ft | 392 kts | 19° |
| 2026-04-23 19:02 | 49.69839 | 19.70642 | 35067 ft | 392 kts | 19° |
| 2026-04-23 19:02 | 49.75780 | 19.74038 | 35060 ft | 392 kts | 19° |
| 2026-04-23 19:03 | 49.80891 | 19.76968 | 35061 ft | 392 kts | 19° |
| 2026-04-23 19:03 | 49.86001 | 19.79910 | 35057 ft | 392 kts | 19° |
| 2026-04-23 19:04 | 49.91110 | 19.82848 | 35068 ft | 391 kts | 19° |
| 2026-04-23 19:04 | 49.96211 | 19.85787 | 35074 ft | 391 kts | 19° |
| 2026-04-23 19:05 | 50.01303 | 19.88741 | 35072 ft | 390 kts | 19° |
| 2026-04-23 19:05 | 50.06390 | 19.91701 | 35070 ft | 390 kts | 19° |
| 2026-04-23 19:06 | 50.11474 | 19.94641 | 35093 ft | 389 kts | 19° |
| 2026-04-23 19:06 | 50.15685 | 19.97089 | 35085 ft | 388 kts | 19° |
| 2026-04-23 19:07 | 50.20730 | 20.00032 | 35077 ft | 387 kts | 19° |
| 2026-04-23 19:07 | 50.25764 | 20.02974 | 35068 ft | 386 kts | 19° |
| 2026-04-23 19:08 | 50.30788 | 20.05928 | 35076 ft | 386 kts | 18° |
| 2026-04-23 19:08 | 50.35804 | 20.08872 | 35060 ft | 385 kts | 18° |
| 2026-04-23 19:09 | 50.40812 | 20.11815 | 35051 ft | 384 kts | 18° |
| 2026-04-23 19:09 | 50.45810 | 20.14758 | 34946 ft | 384 kts | 19° |
| 2026-04-23 19:09 | 50.48306 | 20.16236 | 34701 ft | 383 kts | 19° |
| 2026-04-23 19:10 | 50.50799 | 20.17713 | 34470 ft | 382 kts | 18° |
| 2026-04-23 19:10 | 50.53289 | 20.19187 | 34238 ft | 382 kts | 18° |
| 2026-04-23 19:10 | 50.55766 | 20.20657 | 33997 ft | 381 kts | 18° |
| 2026-04-23 19:10 | 50.58245 | 20.22129 | 33725 ft | 381 kts | 18° |
| 2026-04-23 19:11 | 50.60728 | 20.23607 | 33453 ft | 382 kts | 18° |
| 2026-04-23 19:11 | 50.63215 | 20.25085 | 33183 ft | 383 kts | 18° |
| 2026-04-23 19:11 | 50.65714 | 20.26573 | 32915 ft | 385 kts | 18° |
| 2026-04-23 19:11 | 50.68219 | 20.28068 | 32651 ft | 386 kts | 18° |
| 2026-04-23 19:12 | 50.70735 | 20.29568 | 32386 ft | 387 kts | 18° |
| 2026-04-23 19:12 | 50.73258 | 20.31075 | 32123 ft | 388 kts | 18° |
| 2026-04-23 19:12 | 50.75789 | 20.32590 | 31887 ft | 389 kts | 18° |
| 2026-04-23 19:12 | 50.78323 | 20.34108 | 31626 ft | 390 kts | 18° |
| 2026-04-23 19:13 | 50.80863 | 20.35632 | 31378 ft | 391 kts | 18° |
| 2026-04-23 19:13 | 50.83416 | 20.37164 | 31126 ft | 393 kts | 18° |
| 2026-04-23 19:13 | 50.85972 | 20.38702 | 30555 ft | 394 kts | 18° |
| 2026-04-23 19:13 | 50.88544 | 20.40252 | 29554 ft | 397 kts | 18° |
| 2026-04-23 19:14 | 50.91126 | 20.41812 | 28574 ft | 398 kts | 18° |
| 2026-04-23 19:14 | 50.93712 | 20.43375 | 27650 ft | 397 kts | 18° |
| 2026-04-23 19:14 | 50.96296 | 20.44937 | 26662 ft | 399 kts | 17° |
| 2026-04-23 19:14 | 50.98901 | 20.46512 | 25617 ft | 402 kts | 17° |
| 2026-04-23 19:15 | 51.01523 | 20.48099 | 24585 ft | 405 kts | 17° |
| 2026-04-23 19:15 | 51.04158 | 20.49698 | 23577 ft | 407 kts | 17° |
| 2026-04-23 19:15 | 51.06806 | 20.51307 | 22625 ft | 405 kts | 18° |
| 2026-04-23 19:15 | 51.09423 | 20.52900 | 21890 ft | 400 kts | 18° |
| 2026-04-23 19:16 | 51.12011 | 20.54478 | 21158 ft | 396 kts | 18° |
| 2026-04-23 19:16 | 51.14576 | 20.56041 | 20442 ft | 393 kts | 18° |
| 2026-04-23 19:16 | 51.17121 | 20.57586 | 19738 ft | 390 kts | 18° |
| 2026-04-23 19:17 | 51.22161 | 20.60654 | 18346 ft | 386 kts | 18° |
| 2026-04-23 19:17 | 51.24656 | 20.62184 | 17621 ft | 383 kts | 18° |
| 2026-04-23 19:17 | 51.27127 | 20.63705 | 16976 ft | 378 kts | 18° |
| 2026-04-23 19:17 | 51.29563 | 20.65206 | 16339 ft | 374 kts | 18° |
| 2026-04-23 19:18 | 51.31943 | 20.66670 | 15745 ft | 370 kts | 18° |
| 2026-04-23 19:18 | 51.34368 | 20.68158 | 15117 ft | 366 kts | 18° |
| 2026-04-23 19:18 | 51.36702 | 20.69594 | 14562 ft | 362 kts | 18° |
| 2026-04-23 19:18 | 51.39044 | 20.71039 | 14000 ft | 359 kts | 18° |
| 2026-04-23 19:19 | 51.43651 | 20.73887 | 12855 ft | 350 kts | 18° |
| 2026-04-23 19:19 | 51.45914 | 20.75288 | 12319 ft | 347 kts | 18° |
| 2026-04-23 19:20 | 51.50415 | 20.78077 | 11316 ft | 339 kts | 18° |
| 2026-04-23 19:20 | 51.52535 | 20.79394 | 11190 ft | 323 kts | 18° |
| 2026-04-23 19:20 | 51.54580 | 20.80663 | 11062 ft | 308 kts | 18° |
| 2026-04-23 19:20 | 51.56539 | 20.81877 | 10940 ft | 295 kts | 17° |
| 2026-04-23 19:21 | 51.58416 | 20.83043 | 10817 ft | 284 kts | 17° |
| 2026-04-23 19:21 | 51.61963 | 20.85265 | 10420 ft | 268 kts | 19° |
| 2026-04-23 19:21 | 51.63493 | 20.87009 | 10136 ft | 275 kts | 44° |
| 2026-04-23 19:22 | 51.64380 | 20.89765 | 9847 ft | 286 kts | 70° |
| 2026-04-23 19:22 | 51.64706 | 20.92944 | 9444 ft | 289 kts | 76° |
| 2026-04-23 19:22 | 51.65159 | 20.99360 | 8658 ft | 287 kts | 77° |
| 2026-04-23 19:23 | 51.65374 | 21.02547 | 8293 ft | 286 kts | 77° |
| 2026-04-23 19:23 | 51.65588 | 21.05719 | 7926 ft | 284 kts | 77° |
| 2026-04-23 19:23 | 51.65799 | 21.08867 | 7557 ft | 282 kts | 77° |
| 2026-04-23 19:24 | 51.66215 | 21.15103 | 6980 ft | 278 kts | 77° |
| 2026-04-23 19:24 | 51.66423 | 21.18213 | 6985 ft | 279 kts | 77° |
| 2026-04-23 19:24 | 51.66838 | 21.24436 | 6990 ft | 280 kts | 77° |
| 2026-04-23 19:25 | 51.67274 | 21.30687 | 6992 ft | 281 kts | 77° |
| 2026-04-23 19:25 | 51.67730 | 21.36954 | 6989 ft | 281 kts | 76° |
| 2026-04-23 19:26 | 51.69628 | 21.41830 | 6987 ft | 254 kts | 24° |
| 2026-04-23 19:26 | 51.71222 | 21.43009 | 6988 ft | 252 kts | 18° |
| 2026-04-23 19:27 | 51.74470 | 21.45093 | 6985 ft | 251 kts | 17° |
| 2026-04-23 19:27 | 51.79362 | 21.48179 | 6989 ft | 252 kts | 17° |
| 2026-04-23 19:28 | 51.82703 | 21.48225 | 6736 ft | 242 kts | 335° |
| 2026-04-23 19:28 | 51.85070 | 21.44391 | 5871 ft | 245 kts | 311° |
| 2026-04-23 19:29 | 51.86105 | 21.42202 | 5459 ft | 244 kts | 311° |
| 2026-04-23 19:29 | 51.88153 | 21.37875 | 4687 ft | 240 kts | 311° |
| 2026-04-23 19:30 | 51.90170 | 21.33617 | 3874 ft | 237 kts | 312° |
| 2026-04-23 19:30 | 51.91172 | 21.31505 | 3458 ft | 236 kts | 312° |
| 2026-04-23 19:30 | 51.93094 | 21.27432 | 3070 ft | 214 kts | 312° |
| 2026-04-23 19:31 | 51.93969 | 21.25573 | 3001 ft | 201 kts | 313° |
| 2026-04-23 19:31 | 51.94801 | 21.23813 | 3000 ft | 199 kts | 313° |
| 2026-04-23 19:31 | 51.95644 | 21.22035 | 3002 ft | 199 kts | 313° |
| 2026-04-23 19:31 | 51.96486 | 21.20257 | 3002 ft | 199 kts | 313° |
| 2026-04-23 19:32 | 51.97328 | 21.18474 | 3008 ft | 199 kts | 313° |
| 2026-04-23 19:32 | 51.98172 | 21.16688 | 3005 ft | 199 kts | 313° |
| 2026-04-23 19:32 | 51.99014 | 21.14901 | 3008 ft | 199 kts | 313° |
| 2026-04-23 19:32 | 51.99855 | 21.13111 | 3006 ft | 199 kts | 313° |
| 2026-04-23 19:33 | 52.00698 | 21.11323 | 3008 ft | 199 kts | 313° |
| 2026-04-23 19:33 | 52.01646 | 21.09740 | 3007 ft | 189 kts | 330° |
| 2026-04-23 19:33 | 52.03811 | 21.07825 | 3005 ft | 171 kts | 335° |
| 2026-04-23 19:34 | 52.04856 | 21.06919 | 2997 ft | 170 kts | 335° |
| 2026-04-23 19:34 | 52.05917 | 21.06000 | 2657 ft | 176 kts | 334° |
| 2026-04-23 19:34 | 52.08013 | 21.04175 | 2082 ft | 160 kts | 336° |
| 2026-04-23 19:35 | 52.08941 | 21.03366 | 1872 ft | 143 kts | 336° |
| 2026-04-23 19:35 | 52.09780 | 21.02635 | 1682 ft | 134 kts | 336° |
| 2026-04-23 19:35 | 52.10596 | 21.01927 | 1498 ft | 131 kts | 334° |
| 2026-04-23 19:35 | 52.11395 | 21.01231 | 1318 ft | 130 kts | 333° |
| 2026-04-23 19:36 | 52.12214 | 21.00519 | 1095 ft | 132 kts | 333° |
| 2026-04-23 19:36 | 52.13018 | 20.99822 | 947 ft | 130 kts | 332° |
| 2026-04-23 19:36 | 52.13810 | 20.99128 | 803 ft | 129 kts | 332° |
| 2026-04-23 19:36 | 52.14610 | 20.98427 | 581 ft | 130 kts | 331° |
| 2026-04-23 19:37 | 52.15404 | 20.97737 | 427 ft | 129 kts | 332° |
| 2026-04-23 19:37 | 52.16160 | 20.97077 | 347 ft | 111 kts | 331° |
| 2026-04-23 19:37 | 52.16703 | 20.96600 | 337 ft | 64 kts | 332° |
| 2026-04-23 19:37 | 52.16959 | 20.96375 | 335 ft | 27 kts | 332° |
| 2026-04-23 19:38 | 52.17107 | 20.96267 | 332 ft | 23 kts | 344° |
| 2026-04-23 19:38 | 52.17265 | 20.96239 | 332 ft | 23 kts | 1° |
| 2026-04-23 19:38 | 52.17356 | 20.96247 | 339 ft | 12 kts | 13° |
| 2026-04-23 19:38 | 52.17404 | 20.96350 | 335 ft | 13 kts | 97° |
| 2026-04-23 19:39 | 52.17347 | 20.96438 | 334 ft | 11 kts | 150° |
| 2026-04-23 19:39 | 52.17284 | 20.96495 | 339 ft | 10 kts | 152° |
| 2026-04-23 19:39 | 52.17224 | 20.96546 | 337 ft | 12 kts | 152° |
| 2026-04-23 19:39 | 52.17146 | 20.96615 | 337 ft | 11 kts | 143° |
| 2026-04-23 19:40 | 52.17150 | 20.96749 | 337 ft | 13 kts | 62° |
| 2026-04-23 19:40 | 52.17118 | 20.96875 | 338 ft | 17 kts | 153° |
| 2026-04-23 19:40 | 52.17042 | 20.96941 | 338 ft | 11 kts | 152° |
| 2026-04-23 19:40 | 52.17036 | 20.97046 | 335 ft | 12 kts | 71° |
| 2026-04-23 19:41 | 52.17048 | 20.97105 | 337 ft | 1 kts | 70° |
| 2026-04-23 19:41 | 52.17049 | 20.97109 | 337 ft | 0 kts | 70° |